7N0

New Orleans Downtown Heliport

New Orleans, Louisiana, USA
METAR K7N0 151156Z AUTO 00000KT 10SM CLR 28/24 A3003 RMK AO2 SLP168 T02830239 10300 20278 53004
Observed Flight Rules
Aug-15 @ 11:56 UTC (45 minutes ago) Visual Flight Rules
Visibility Clouds
10 miles
  • Clear skies
Temperatures Readings
Current 28°C / 82°F
Dewpoint 24°C / 75°F
Humidity 79%
Altimeter 30.03" Hg
Pressure 1016.8 hPa
Elevation 0
METAR K7N0 151156Z AUTO 00000KT 10SM CLR 28/24 A3003 RMK AO2 SLP168 T02830239 10300 20278 53004
Observed Flight Rules
Aug-15 @ 11:56 UTC
(45 minutes ago)
VFR
Clouds
  • Clear skies
Temperature Dewpoint
28°C / 82°F 24°C / 75°F
Humidity Altimeter Pressure
79% 30.03" Hg 1016.8 hPa